LITTLE EGG INLET NEAR TUCKERTON HADS current weather conditions

sailwx.info

Wind from 254 at 9 knots gusting 12

Air temperature 3.6° C
Dewpoint -3.0° C

Last reported at 2019-Dec-06 05:00 UTC.
Time now 2019-Dec-06 05:59 UTC

Location: N 39°31' W 074°19'.
View on Google Maps.

See reports from other nearby stations

  
Tides and Currents Weather Stations Pressure Air Temp Water Temp Dewpoint Dewpoint Depression Visibility Wind Speed Wind Dir Waves Ship Positions
date/time (UTC)wind fromknots sea level pressurealtimeterstation pressurevisibilityair tempwater tempwave heightnotes
2019-Dec-06 05:00 254 9 gusting 12 3.6
2019-Dec-06 04:54 250 9 gusting 12 3.7
2019-Dec-06 04:48 238 10 gusting 12 3.8
2019-Dec-06 04:42 242 10 gusting 13 3.8
2019-Dec-06 04:36 249 9 gusting 12 4.0
2019-Dec-06 04:30 246 10 gusting 13 4.0
2019-Dec-06 04:24 241 10 gusting 12 3.9
2019-Dec-06 04:18 245 9 gusting 11 3.9
2019-Dec-06 04:12 248 8 gusting 10 4.0
2019-Dec-06 04:06 242 9 gusting 11 4.2
2019-Dec-06 04:00 246 10 gusting 13 4.2
2019-Dec-06 03:54 256 9 gusting 12 4.2
2019-Dec-06 03:48 257 10 gusting 14 4.4
2019-Dec-06 03:42 256 12 gusting 15 4.4
2019-Dec-06 03:36 260 11 gusting 16 4.5
2019-Dec-06 03:30 262 11 gusting 15 4.5
2019-Dec-06 03:24 261 11 gusting 18 4.6
2019-Dec-06 03:18 256 10 gusting 14 4.6
2019-Dec-06 03:12 260 9 gusting 11 4.6
2019-Dec-06 03:06 256 10 gusting 13 4.6
2019-Dec-06 03:00 256 11 gusting 14 4.6
2019-Dec-06 02:54 256 10 gusting 13 4.7
2019-Dec-06 02:48 250 11 gusting 15 4.8
2019-Dec-06 02:42 247 10 gusting 12 4.8
2019-Dec-06 02:36 250 10 gusting 13 4.9
2019-Dec-06 02:30 254 7 gusting 11 4.8
2019-Dec-06 02:24 260 8 gusting 10 4.8
2019-Dec-06 02:18 263 9 gusting 11 4.9
2019-Dec-06 02:12 267 10 gusting 13 4.9
2019-Dec-06 02:06 271 11 gusting 17 4.9
2019-Dec-06 02:00 273 11 gusting 15 5.0
2019-Dec-06 01:54 275 15 gusting 23 5.1
2019-Dec-06 01:48 274 14 gusting 20 5.2
2019-Dec-06 01:42 270 13 gusting 20 5.2
2019-Dec-06 01:36 267 13 gusting 18 5.2
2019-Dec-06 01:30 263 11 gusting 15 5.2
2019-Dec-06 01:24 259 12 gusting 16 5.1
2019-Dec-06 01:18 261 10 gusting 14 5.2
2019-Dec-06 01:12 264 10 gusting 14 5.2
2019-Dec-06 01:06 260 10 gusting 13 5.2
2019-Dec-06 01:00 262 9 gusting 13 5.2
2019-Dec-06 00:54 263 9 gusting 13 5.1
2019-Dec-06 00:48 265 8 gusting 11 5.1
2019-Dec-06 00:42 268 8 gusting 11 5.2
2019-Dec-06 00:36 269 8 gusting 11 5.3
2019-Dec-06 00:30 271 8 gusting 12 5.2
2019-Dec-06 00:24 270 8 gusting 10 5.2
2019-Dec-06 00:18 274 8 gusting 12 5.2
2019-Dec-06 00:12 279 9 gusting 12 5.2
2019-Dec-06 00:06 282 9 gusting 12 5.2
2019-Dec-06 00:00 284 9 gusting 14 5.3
2019-Dec-05 23:54 283 10 gusting 15 5.3
2019-Dec-05 23:48 282 11 gusting 16 5.4
2019-Dec-05 23:42 283 12 gusting 18 5.4
2019-Dec-05 23:36 282 12 gusting 19 5.5
2019-Dec-05 23:30 281 12 gusting 17 5.4
2019-Dec-05 23:24 283 14 gusting 20 5.5
2019-Dec-05 23:18 279 14 gusting 23 5.6
2019-Dec-05 23:12 274 13 gusting 20 5.6
2019-Dec-05 23:06 277 13 gusting 19 5.5
2019-Dec-05 23:00 274 13 gusting 20 5.6
2019-Dec-05 22:54 274 12 gusting 19 5.4
2019-Dec-05 22:48 280 11 gusting 17 5.5
2019-Dec-05 22:42 282 13 gusting 21 5.5
2019-Dec-05 22:36 282 14 gusting 22 5.7
2019-Dec-05 22:30 279 17 gusting 25 5.6
2019-Dec-05 22:24 281 15 gusting 26 5.6
2019-Dec-05 22:18 284 17 gusting 25 5.6
2019-Dec-05 22:12 283 16 gusting 24 5.5
2019-Dec-05 22:06 284 14 gusting 20 5.6
2019-Dec-05 22:00 281 14 gusting 22 5.5
2019-Dec-05 21:54 278 13 gusting 20 5.5
2019-Dec-05 21:48 278 11 gusting 16 5.4
2019-Dec-05 21:42 279 10 gusting 17 5.4
2019-Dec-05 21:36 288 11 gusting 14 5.4
2019-Dec-05 21:30 292 11 gusting 16 5.4
2019-Dec-05 21:24 291 13 gusting 19 5.6
2019-Dec-05 21:18 291 15 gusting 22 5.6
2019-Dec-05 21:12 289 15 gusting 26 5.6
2019-Dec-05 21:06 284 14 gusting 21 5.7
2019-Dec-05 21:00 285 13 gusting 20 5.7
2019-Dec-05 20:54 288 14 gusting 21 5.7
2019-Dec-05 20:48 290 15 gusting 21 5.8
2019-Dec-05 20:42 288 16 gusting 22 5.9
2019-Dec-05 20:36 281 18 gusting 26 6.0
2019-Dec-05 20:30 284 16 gusting 23 5.9
2019-Dec-05 20:24 289 17 gusting 24 6.0
2019-Dec-05 20:18 287 18 gusting 25 6.0
2019-Dec-05 20:12 288 16 gusting 22 6.0
2019-Dec-05 20:06 284 16 gusting 24 6.0
2019-Dec-05 20:00 284 17 gusting 24 6.2
2019-Dec-05 19:54 288 18 gusting 26 6.2
2019-Dec-05 19:48 288 19 gusting 29 6.1
2019-Dec-05 19:42 283 17 gusting 24 6.1
2019-Dec-05 19:36 282 16 gusting 24 6.0
2019-Dec-05 19:30 289 16 gusting 24 6.1
2019-Dec-05 19:24 289 17 gusting 25 6.3
2019-Dec-05 19:18 289 16 gusting 25 6.5
2019-Dec-05 19:12 292 17 gusting 26 6.3
2019-Dec-05 19:06 289 16 gusting 24 6.0
2019-Dec-05 19:00 293 17 gusting 24 6.0
2019-Dec-05 18:54 294 16 gusting 24 5.9
2019-Dec-05 18:48 294 15 gusting 22 5.9
2019-Dec-05 18:42 303 16 gusting 24 5.9
2019-Dec-05 18:36 304 17 gusting 24 5.8
2019-Dec-05 18:30 298 18 gusting 24 5.8
2019-Dec-05 18:24 293 18 gusting 28 6.1
2019-Dec-05 18:18 288 17 gusting 28 6.2
2019-Dec-05 18:12 283 18 gusting 28 6.1
2019-Dec-05 18:06 285 17 gusting 26 6.0
2019-Dec-05 18:00 280 20 gusting 29 5.5
2019-Dec-05 17:54 285 20 gusting 29 5.4
2019-Dec-05 17:48 284 17 gusting 27 5.5
2019-Dec-05 17:42 288 18 gusting 27 5.5
2019-Dec-05 17:36 287 16 gusting 23 5.5
2019-Dec-05 17:30 289 19 gusting 28 5.5
2019-Dec-05 17:24 290 18 gusting 26 5.5
2019-Dec-05 17:18 282 19 gusting 30 5.5
2019-Dec-05 17:12 278 18 gusting 41 5.7
2019-Dec-05 17:06 285 17 gusting 26 5.7
2019-Dec-05 17:00 282 20 gusting 27 5.7
2019-Dec-05 16:54 282 19 gusting 28 5.7
2019-Dec-05 16:48 280 18 gusting 25 5.7
2019-Dec-05 16:42 278 19 gusting 27 5.6
2019-Dec-05 16:36 282 18 gusting 28 5.7
2019-Dec-05 16:30 284 18 gusting 25 5.8
2019-Dec-05 16:24 283 18 gusting 26 6.3
2019-Dec-05 16:18 285 18 gusting 26 6.2
2019-Dec-05 16:12 287 20 gusting 29 6.0
2019-Dec-05 16:06 281 21 gusting 29 5.8
2019-Dec-05 16:00 283 21 gusting 29 5.8
2019-Dec-05 15:54 284 21 gusting 29 5.8
2019-Dec-05 15:48 287 22 gusting 33 5.7
2019-Dec-05 15:42 285 20 gusting 27 5.6
2019-Dec-05 15:36 286 20 gusting 29 5.5
2019-Dec-05 15:30 284 21 gusting 29 5.4
2019-Dec-05 15:24 283 23 gusting 32 5.3
2019-Dec-05 15:18 284 19 gusting 27 5.2
2019-Dec-05 15:12 281 21 gusting 29 5.1
2019-Dec-05 15:06 280 20 gusting 29 4.9
2019-Dec-05 15:00 281 20 gusting 29 4.9
2019-Dec-05 14:54 280 18 gusting 27 5.0
2019-Dec-05 14:48 282 18 gusting 27 4.9
2019-Dec-05 14:42 281 19 gusting 29 4.7
2019-Dec-05 14:36 282 19 gusting 28 4.7
2019-Dec-05 14:30 283 19 gusting 27 4.7
2019-Dec-05 14:24 283 19 gusting 26 4.7
2019-Dec-05 14:18 280 19 gusting 27 4.8
2019-Dec-05 14:12 281 19 gusting 27 4.7
2019-Dec-05 14:06 280 18 gusting 27 4.7
2019-Dec-05 14:00 279 17 gusting 25 4.5
2019-Dec-05 13:54 283 17 gusting 27 4.5
2019-Dec-05 13:48 280 16 gusting 22 4.4
2019-Dec-05 13:42 279 16 gusting 23 4.4
2019-Dec-05 13:36 277 16 gusting 24 4.3
2019-Dec-05 13:30 276 17 gusting 23 4.1
2019-Dec-05 13:24 277 16 gusting 24 4.0
2019-Dec-05 13:18 277 16 gusting 24 3.9
2019-Dec-05 13:12 276 16 gusting 22 3.9
2019-Dec-05 13:06 276 16 gusting 21 3.9
2019-Dec-05 13:00 269 15 gusting 20 3.9
2019-Dec-05 12:54 264 14 gusting 21 3.9
2019-Dec-05 12:48 263 14 gusting 19 3.8
2019-Dec-05 12:42 266 14 gusting 20 3.7
2019-Dec-05 12:36 272 14 gusting 20 3.7
2019-Dec-05 12:30 275 14 gusting 20 3.5
2019-Dec-05 12:24 276 14 gusting 21 3.3
2019-Dec-05 12:18 276 14 gusting 20 3.3
2019-Dec-05 12:12 275 14 gusting 19 3.3
2019-Dec-05 12:06 272 15 gusting 19 3.4
2019-Dec-05 12:00 271 15 gusting 20 3.4
2019-Dec-05 11:54 270 15 gusting 21 3.4
2019-Dec-05 11:48 272 14 gusting 20 3.4
2019-Dec-05 11:42 270 14 gusting 19 3.4
2019-Dec-05 11:36 265 14 gusting 19 3.5
2019-Dec-05 11:30 262 13 gusting 19 3.5
2019-Dec-05 11:24 261 14 gusting 19 3.6
2019-Dec-05 11:18 259 13 gusting 19 3.6
2019-Dec-05 11:12 260 14 gusting 19 3.5
2019-Dec-05 11:06 260 14 gusting 19 3.5
2019-Dec-05 11:00 263 14 gusting 22 3.5
2019-Dec-05 10:54 266 14 gusting 19 3.4
2019-Dec-05 10:48 266 14 gusting 19 3.4
2019-Dec-05 10:42 265 14 gusting 18 3.4
2019-Dec-05 10:36 263 14 gusting 19 3.4
2019-Dec-05 10:30 265 15 gusting 20 3.4
2019-Dec-05 10:24 267 13 gusting 19 3.4
2019-Dec-05 10:18 266 14 gusting 20 3.3
2019-Dec-05 10:12 262 13 gusting 19 3.3
2019-Dec-05 10:06 260 14 gusting 17 3.3
2019-Dec-05 10:00 260 13 gusting 19 3.3
2019-Dec-05 09:54 262 13 gusting 19 3.4
2019-Dec-05 09:48 263 14 gusting 20 3.4
2019-Dec-05 09:42 262 15 gusting 19 3.3
2019-Dec-05 09:36 259 14 gusting 17 3.4
2019-Dec-05 09:30 260 14 gusting 19 3.4
2019-Dec-05 09:24 265 14 gusting 18 3.2
2019-Dec-05 09:18 263 14 gusting 18 3.1
2019-Dec-05 09:12 258 14 gusting 17 3.2
2019-Dec-05 09:06 259 13 gusting 18 3.4
2019-Dec-05 09:00 264 13 gusting 18 3.4
2019-Dec-05 08:54 268 13 gusting 18 3.5
2019-Dec-05 08:48 267 14 gusting 19 3.6
2019-Dec-05 08:42 265 15 gusting 20 3.8
2019-Dec-05 08:36 269 15 gusting 21 3.9
2019-Dec-05 08:30 272 16 gusting 21 3.9
2019-Dec-05 08:24 268 16 gusting 24 3.9
2019-Dec-05 08:18 265 17 gusting 23 3.8
2019-Dec-05 08:12 263 16 gusting 21 3.7
2019-Dec-05 08:06 262 16 gusting 21 3.6
2019-Dec-05 08:00 260 16 gusting 22 3.5
2019-Dec-05 07:54 259 15 gusting 20 3.5
2019-Dec-05 07:48 260 15 gusting 21 3.4
2019-Dec-05 07:42 261 15 gusting 20 3.5
2019-Dec-05 07:36 258 15 gusting 20 3.6
2019-Dec-05 07:30 256 15 gusting 19 3.6
2019-Dec-05 07:24 245 14 gusting 17 3.5
2019-Dec-05 07:18 238 13 gusting 16 3.3
2019-Dec-05 07:12 236 13 gusting 16 3.3
2019-Dec-05 07:06 236 12 gusting 15 3.2
2019-Dec-05 07:00 233 12 gusting 15 3.3
2019-Dec-05 06:54 240 13 gusting 16 3.5
2019-Dec-05 06:48 246 13 gusting 16 3.6
2019-Dec-05 06:42 247 13 gusting 16 3.5
2019-Dec-05 06:36 248 13 gusting 16 3.5
2019-Dec-05 06:30 245 13 gusting 16 3.4
2019-Dec-05 06:24 246 13 gusting 17 3.5
2019-Dec-05 06:18 252 13 gusting 17 3.5
2019-Dec-05 06:12 249 12 gusting 16 3.4
2019-Dec-05 06:06 245 13 gusting 16 3.3
2019-Dec-05 06:00 243 12 gusting 15 3.1
2019-Dec-05 05:54 240 12 gusting 15 3.1
2019-Dec-05 05:48 242 11 gusting 14 3.1
2019-Dec-05 05:42 252 11 gusting 15 3.1
2019-Dec-05 05:36 263 11 gusting 15 3.2
2019-Dec-05 05:30 274 11 gusting 15 3.2
2019-Dec-05 05:24 278 11 gusting 15 3.1
2019-Dec-05 05:18 275 11 gusting 15 3.1
2019-Dec-05 05:12 274 11 gusting 17 3.0
2019-Dec-05 05:06 276 10 gusting 14 3.0
2019-Dec-05 05:00 273 11 gusting 14 3.0
2019-Dec-05 04:54 273 10 gusting 14 3.0
2019-Dec-05 04:48 279 9 gusting 14 3.0
2019-Dec-05 04:42 278 9 gusting 14 3.0
2019-Dec-05 04:36 276 9 gusting 13 3.0
2019-Dec-05 04:30 270 9 gusting 13 3.0
2019-Dec-05 04:24 267 9 gusting 13 3.0
2019-Dec-05 04:18 270 9 gusting 12 3.0
2019-Dec-05 04:12 270 9 gusting 14 3.1
2019-Dec-05 04:06 271 9 gusting 13 3.1
2019-Dec-05 04:00 276 10 gusting 13 3.1
2019-Dec-05 03:54 275 10 gusting 15 3.1
2019-Dec-05 03:48 273 10 gusting 14 3.2
2019-Dec-05 03:42 270 11 gusting 16 3.1
2019-Dec-05 03:36 263 11 gusting 14 3.1
2019-Dec-05 03:30 262 11 gusting 15 3.2
2019-Dec-05 03:24 257 12 gusting 16 3.2
2019-Dec-05 03:18 258 11 gusting 15 3.2
2019-Dec-05 03:12 259 11 gusting 16 3.1
2019-Dec-05 03:06 259 11 gusting 14 3.2
2019-Dec-05 03:00 256 12 gusting 15 3.2
2019-Dec-05 02:54 259 12 gusting 16 3.2
2019-Dec-05 02:48 257 10 gusting 13 3.2
2019-Dec-05 02:42 257 11 gusting 14 3.1
2019-Dec-05 02:36 252 9 gusting 12 3.1
2019-Dec-05 02:30 256 9 gusting 11 3.1
2019-Dec-05 02:24 259 9 gusting 12 3.1
2019-Dec-05 02:18 262 9 gusting 12 3.0
2019-Dec-05 02:12 270 8 gusting 11 3.0
2019-Dec-05 02:06 271 8 gusting 11 3.0
2019-Dec-05 02:00 274 8 gusting 11 3.0
2019-Dec-05 01:54 273 9 gusting 12 2.9
2019-Dec-05 01:48 277 8 gusting 11 3.0
2019-Dec-05 01:42 279 8 gusting 11 3.0
2019-Dec-05 01:36 279 8 gusting 11 3.0
2019-Dec-05 01:30 283 8 gusting 10 3.0
2019-Dec-05 01:24 286 8 gusting 11 3.0
2019-Dec-05 01:18 286 7 gusting 10 3.1
2019-Dec-05 01:12 283 6 gusting 8 3.1
2019-Dec-05 01:06 286 8 gusting 11 3.1
2019-Dec-05 01:00 285 8 gusting 11 3.1
2019-Dec-05 00:54 286 9 gusting 12 3.2
2019-Dec-05 00:48 282 9 gusting 12 3.3
2019-Dec-05 00:42 282 8 gusting 11 3.4
2019-Dec-05 00:36 271 9 gusting 13 3.4
2019-Dec-05 00:30 269 11 gusting 13 3.6
2019-Dec-05 00:24 268 10 gusting 14 3.8
2019-Dec-05 00:18 265 10 gusting 13 3.9
2019-Dec-05 00:12 266 11 gusting 14 3.9
2019-Dec-05 00:06 266 11 gusting 14 4.1
2019-Dec-05 00:00 264 11 gusting 16 4.2
2019-Dec-04 23:54 259 13 gusting 17 4.2
2019-Dec-04 23:48 256 13 gusting 18 4.4
2019-Dec-04 23:42 250 14 gusting 17 4.6
2019-Dec-04 23:36 258 13 gusting 19 4.6
2019-Dec-04 23:30 255 12 gusting 16 4.9
2019-Dec-04 23:24 251 11 gusting 13 5.0
2019-Dec-04 23:18 248 10 gusting 13 5.1
2019-Dec-04 23:12 247 11 gusting 13 5.2
2019-Dec-04 23:06 248 11 gusting 14 5.2
2019-Dec-04 23:00 246 11 gusting 12 5.3
2019-Dec-04 22:54 249 11 gusting 14 5.3
2019-Dec-04 22:48 253 12 gusting 17 5.4
2019-Dec-04 22:42 258 11 gusting 15 5.4
2019-Dec-04 22:36 256 12 gusting 15 5.5
2019-Dec-04 22:30 257 11 gusting 15 5.5
2019-Dec-04 22:24 253 11 gusting 15 5.6
2019-Dec-04 22:18 258 9 gusting 15 5.4
2019-Dec-04 22:12 273 4 gusting 10 5.2
2019-Dec-04 22:06 286 2 gusting 3 5.2
2019-Dec-04 22:00 291 2 gusting 2 5.2
2019-Dec-04 21:54 294 1 gusting 2 5.2
2019-Dec-04 21:48 303 2 gusting 2 5.2
2019-Dec-04 21:42 303 2 gusting 3 5.2
2019-Dec-04 21:36 313 2 gusting 3 5.2
2019-Dec-04 21:30 315 2 gusting 3 5.2
2019-Dec-04 21:24 307 2 gusting 3 5.2
2019-Dec-04 21:18 305 2 gusting 3 5.2
2019-Dec-04 21:12 309 3 gusting 3 5.1
2019-Dec-04 21:06 311 2 gusting 3 5.1
2019-Dec-04 21:00 318 2 gusting 3 5.2
2019-Dec-04 20:54 320 3 gusting 4 5.3
2019-Dec-04 20:48 317 4 gusting 5 5.5
2019-Dec-04 20:42 306 4 gusting 6 5.5
2019-Dec-04 20:36 305 4 gusting 7 5.6
2019-Dec-04 20:30 310 5 gusting 7 5.7
2019-Dec-04 20:24 297 6 gusting 7 5.9
2019-Dec-04 20:18 291 6 gusting 8 5.8
2019-Dec-04 20:12 294 5 gusting 7 5.9
2019-Dec-04 20:06 290 6 gusting 8 5.9
2019-Dec-04 20:00 290 6 gusting 9 6.0
2019-Dec-04 19:54 294 6 gusting 9 6.1
2019-Dec-04 19:48 291 6 gusting 9 6.0
2019-Dec-04 19:42 282 6 gusting 8 5.8
2019-Dec-04 19:36 280 7 gusting 9 5.7
2019-Dec-04 19:30 289 7 gusting 10 5.6
2019-Dec-04 19:24 281 9 gusting 13 5.7
2019-Dec-04 19:18 284 9 gusting 13 5.6
2019-Dec-04 19:12 283 10 gusting 15 5.6
2019-Dec-04 19:06 282 11 gusting 15 5.6
2019-Dec-04 19:00 282 9 gusting 15 5.6
2019-Dec-04 18:54 281 8 gusting 12 5.5
2019-Dec-04 18:48 286 9 gusting 13 5.5
2019-Dec-04 18:42 279 9 gusting 13 5.4
2019-Dec-04 18:36 273 9 gusting 13 5.3
2019-Dec-04 18:30 277 7 gusting 9 5.3
2019-Dec-04 18:24 285 7 gusting 10 5.2
2019-Dec-04 18:18 286 7 gusting 9 5.1
2019-Dec-04 18:12 286 8 gusting 10 5.1
2019-Dec-04 18:06 291 6 gusting 9 5.2
2019-Dec-04 18:00 277 7 gusting 11 5.4
2019-Dec-04 17:54 268 7 gusting 10 5.3
2019-Dec-04 17:48 280 6 gusting 9 5.1
2019-Dec-04 17:42 274 6 gusting 9 5.0
2019-Dec-04 17:36 289 7 gusting 9 4.8
2019-Dec-04 17:30 272 6 gusting 8 4.9
2019-Dec-04 17:24 274 7 gusting 10 4.8
2019-Dec-04 17:18 264 7 gusting 11 4.7
2019-Dec-04 17:12 265 8 gusting 12 4.6
2019-Dec-04 17:06 258 9 gusting 14 4.6
2019-Dec-04 17:00 267 8 gusting 11 4.5
2019-Dec-04 16:54 260 9 gusting 11 4.5
2019-Dec-04 16:48 267 9 gusting 13 4.5
2019-Dec-04 16:42 267 8 gusting 13 4.6
2019-Dec-04 16:36 268 10 gusting 13 4.5
2019-Dec-04 16:30 268 9 gusting 12 4.5
2019-Dec-04 16:24 268 9 gusting 13 4.5
2019-Dec-04 16:18 266 8 gusting 12 4.6
2019-Dec-04 16:12 267 9 gusting 12 4.5
2019-Dec-04 16:06 263 8 gusting 12 4.4
2019-Dec-04 16:00 250 9 gusting 11 4.2
2019-Dec-04 15:54 257 8 gusting 12 4.3
2019-Dec-04 15:48 254 9 gusting 12 4.1
2019-Dec-04 15:42 256 9 gusting 12 4.1
2019-Dec-04 15:36 254 8 gusting 10 4.1
2019-Dec-04 15:30 256 8 gusting 11 3.9
2019-Dec-04 15:24 255 8 gusting 11 3.7
2019-Dec-04 15:18 241 8 gusting 10 3.7
2019-Dec-04 15:12 239 7 gusting 9 3.6
2019-Dec-04 15:06 236 7 gusting 9 3.5
2019-Dec-04 15:00 239 7 gusting 9 3.4
2019-Dec-04 14:54 240 7 gusting 11 3.3
2019-Dec-04 14:48 239 7 gusting 9 3.3
2019-Dec-04 14:42 244 8 gusting 9 3.2
2019-Dec-04 14:36 249 8 gusting 10 3.2
2019-Dec-04 14:30 249 8 gusting 9 3.1
2019-Dec-04 14:24 249 7 gusting 9 3.1
2019-Dec-04 14:18 245 8 gusting 10 3.0
2019-Dec-04 14:12 248 9 gusting 11 3.0
2019-Dec-04 14:06 256 11 gusting 13 2.9
2019-Dec-04 14:00 255 10 gusting 13 2.9
2019-Dec-04 13:54 253 10 gusting 14 2.9
2019-Dec-04 13:48 250 11 gusting 13 2.9
2019-Dec-04 13:42 253 11 gusting 14 2.8
2019-Dec-04 13:36 251 10 gusting 13 2.8
2019-Dec-04 13:30 251 10 gusting 13 2.8
2019-Dec-04 13:24 248 10 gusting 13 2.8
2019-Dec-04 13:18 244 10 gusting 12 2.8
2019-Dec-04 13:12 241 10 gusting 12 2.7
2019-Dec-04 13:06 243 10 gusting 12 2.7
2019-Dec-04 13:00 243 9 gusting 11 2.7
2019-Dec-04 12:54 244 10 gusting 11 2.6
2019-Dec-04 12:48 244 10 gusting 12 2.6
2019-Dec-04 12:42 247 11 gusting 13 2.6
2019-Dec-04 12:36 250 10 gusting 12 2.7
2019-Dec-04 12:30 249 10 gusting 12 2.5
2019-Dec-04 12:24 245 11 gusting 12 2.5
2019-Dec-04 12:18 246 11 gusting 14 2.5
2019-Dec-04 12:12 248 11 gusting 15 2.4
2019-Dec-04 12:06 243 11 gusting 14 2.4
2019-Dec-04 12:00 239 11 gusting 15 2.4
2019-Dec-04 11:54 238 10 gusting 13 2.6
2019-Dec-04 11:48 236 10 gusting 13 2.5
2019-Dec-04 11:42 236 9 gusting 12 2.5
2019-Dec-04 11:36 235 9 gusting 11 2.5
2019-Dec-04 11:30 236 9 gusting 11 2.6
2019-Dec-04 11:24 235 10 gusting 12 2.6
2019-Dec-04 11:18 233 10 gusting 12 2.6
2019-Dec-04 11:12 228 9 gusting 11 2.6
2019-Dec-04 11:06 224 9 gusting 11 2.6
2019-Dec-04 11:00 220 9 gusting 11 2.5
2019-Dec-04 10:54 215 9 gusting 11 2.5
2019-Dec-04 10:48 216 9 gusting 11 2.5
2019-Dec-04 10:42 219 10 gusting 12 2.5
2019-Dec-04 10:36 216 9 gusting 11 2.4
2019-Dec-04 10:30 213 9 gusting 11 2.5
2019-Dec-04 10:24 217 9 gusting 11 2.5
2019-Dec-04 10:18 226 9 gusting 11 2.4
2019-Dec-04 10:12 229 9 gusting 10 2.4
2019-Dec-04 10:06 228 9 gusting 11 2.4
2019-Dec-04 10:00 229 9 gusting 10 2.2
2019-Dec-04 09:54 226 9 gusting 11 2.3
2019-Dec-04 09:48 235 9 gusting 10 2.2
2019-Dec-04 09:42 236 8 gusting 10 2.4
2019-Dec-04 09:36 235 8 gusting 10 2.3
2019-Dec-04 09:30 234 7 gusting 9 2.4
2019-Dec-04 09:24 235 7 gusting 8 2.3
2019-Dec-04 09:18 242 6 gusting 9 2.3
2019-Dec-04 09:12 241 7 gusting 8 2.3
2019-Dec-04 09:06 245 7 gusting 9 2.3
2019-Dec-04 09:00 254 7 gusting 9 2.2
2019-Dec-04 08:54 260 6 gusting 8 2.2
2019-Dec-04 08:48 259 6 gusting 8 2.2
2019-Dec-04 08:42 258 6 gusting 8 2.2
2019-Dec-04 08:36 262 6 gusting 8 2.2
2019-Dec-04 08:30 262 6 gusting 8 2.2
2019-Dec-04 08:24 265 7 gusting 9 2.2
2019-Dec-04 08:18 261 7 gusting 10 2.1
2019-Dec-04 08:12 270 8 gusting 11 2.1
2019-Dec-04 08:06 277 7 gusting 11 2.1
2019-Dec-04 08:00 280 8 gusting 12 2.1
2019-Dec-04 07:54 282 7 gusting 11 2.1
2019-Dec-04 07:48 280 7 gusting 11 2.1
2019-Dec-04 07:42 281 9 gusting 12 2.1
2019-Dec-04 07:36 279 8 gusting 12 2.1
2019-Dec-04 07:30 279 9 gusting 12 2.1
2019-Dec-04 07:24 283 9 gusting 12 2.1
2019-Dec-04 07:18 283 9 gusting 13 2.2
2019-Dec-04 07:12 284 9 gusting 13 2.2
2019-Dec-04 07:06 286 9 gusting 13 2.3
2019-Dec-04 07:00 291 8 gusting 13 2.2
2019-Dec-04 06:54 294 9 gusting 14 2.2
2019-Dec-04 06:48 290 8 gusting 12 2.2
2019-Dec-04 06:42 290 9 gusting 12 2.2
2019-Dec-04 06:36 290 8 gusting 12 2.1
2019-Dec-04 06:30 292 8 gusting 11 2.2
2019-Dec-04 06:24 278 8 gusting 12 2.2
2019-Dec-04 06:18 280 8 gusting 11 2.2
2019-Dec-04 06:12 285 8 gusting 11 2.1
2019-Dec-04 06:06 279 9 gusting 14 2.1
2019-Dec-04 06:00 270 9 gusting 13 2.2
2019-Dec-04 05:54 264 10 gusting 14 2.1
2019-Dec-04 05:48 264 9 gusting 14 2.1
2019-Dec-04 05:42 258 10 gusting 15 2.2
2019-Dec-04 05:36 251 11 gusting 14 2.2
2019-Dec-04 05:30 246 11 gusting 15 2.3
2019-Dec-04 05:24 240 11 gusting 14 2.3
2019-Dec-04 05:18 237 11 gusting 15 2.3
2019-Dec-04 05:12 234 11 gusting 14 2.1
2019-Dec-04 05:06 226 10 gusting 12 2.2
2019-Dec-04 05:00 235 9 gusting 11 2.1